Página principal
METAR-TAF:

METAR-TAF

Aeroportos :

Atqasuk, Alasca, Estados Unidos

latitude: 70-28-02N, longitude: 157-26-08W, altura: 31 m

Observação actual do tempo

O boletim foi feito há 53 minutos, às 14:56 UTC
Vento 17 kt de este
Temperatura 4°C
Humidade 75%
Pressão 1018 hPa
Visibilidade: 16.1 km
Céu limpo

METAR: PATQ 191456Z AUTO 09017KT 10SM CLR 04/00 A3006 RMK AO2 SLP182 T00390000 51013 TSNO

Hora: 07:49 (15:49 UTC)


TAF: em falta

Observações e previsões do tempo de mais de 4000 aeroportos (mensagens METAR e TAF).

As estações disponíveis são os pontos amarelos e vermelhos sobre o mapa.

Mova o rato sobre o mapa para ver o nome da estação.

Depois clique no ponto para visualizar as observações e previsões meteorológicas.

Para alterar o mapa : clique nos botões verdes com uma cruz preta para aumentar o zoom; no botão verde com uma pitada de zoom; ou nas setas verdes para mapas adjacentes.


METAR-TAF: